TimeEDT,TemperatureF,Dew PointF,Humidity,Sea Level PressureIn,VisibilityMPH,Wind Direction,Wind SpeedMPH,Gust SpeedMPH,PrecipitationIn,Events,Conditions,WindDirDegrees,DateUTC
12:15 AM,65.5,62.6,90,30.24,10.0,ENE,9.2,-,N/A,Rain,Light Rain,60,2013-08-18 04:15:00
12:35 AM,65.5,62.6,90,30.24,10.0,ENE,9.2,-,0.01,Rain,Rain,60,2013-08-18 04:35:00
12:55 AM,65.5,62.6,90,30.24,10.0,NE,4.6,-,0.03,Rain,Light Rain,50,2013-08-18 04:55:00
1:15 AM,65.3,62.4,90,30.24,10.0,Calm,Calm,-,0.01,Rain,Light Rain,0,2013-08-18 05:15:00
1:35 AM,65.5,62.6,90,30.23,10.0,NE,3.5,-,0.02,,Drizzle,50,2013-08-18 05:35:00
1:55 AM,65.1,62.2,90,30.23,10.0,Calm,Calm,-,0.02,,Drizzle,0,2013-08-18 05:55:00
2:15 AM,64.9,62.2,91,30.23,10.0,Calm,Calm,-,0.01,,Drizzle,0,2013-08-18 06:15:00
2:35 AM,64.9,62.2,91,30.22,7.0,Calm,Calm,-,0.01,,Drizzle,0,2013-08-18 06:35:00
2:55 AM,64.9,62.2,91,30.22,7.0,Calm,Calm,-,0.01,,Light Drizzle,0,2013-08-18 06:55:00
3:15 AM,64.9,62.2,91,30.22,5.0,Calm,Calm,-,N/A,,Light Drizzle,0,2013-08-18 07:15:00
3:35 AM,64.8,62.1,91,30.23,10.0,Calm,Calm,-,N/A,,Light Drizzle,0,2013-08-18 07:35:00
3:55 AM,64.9,62.2,91,30.22,10.0,NNE,3.5,-,N/A,,Light Drizzle,20,2013-08-18 07:55:00
4:15 AM,65.3,62.6,91,30.22,10.0,Calm,Calm,-,N/A,,Overcast,0,2013-08-18 08:15:00
4:35 AM,65.3,62.2,90,30.22,10.0,Calm,Calm,-,N/A,,Overcast,0,2013-08-18 08:35:00
4:55 AM,65.3,62.2,90,30.23,10.0,Calm,Calm,-,N/A,,Overcast,0,2013-08-18 08:55:00
5:15 AM,64.9,62.6,92,30.22,7.0,Calm,Calm,-,N/A,Rain,Rain,0,2013-08-18 09:15:00
5:35 AM,64.8,62.2,92,30.23,7.0,Calm,Calm,-,0.01,,Light Drizzle,0,2013-08-18 09:35:00
5:55 AM,65.3,62.6,91,30.23,10.0,Calm,Calm,-,0.01,,Overcast,0,2013-08-18 09:55:00
6:15 AM,64.9,62.6,92,30.24,10.0,Calm,Calm,-,N/A,,Overcast,0,2013-08-18 10:15:00
6:35 AM,64.9,62.6,92,30.25,10.0,Calm,Calm,-,N/A,,Overcast,0,2013-08-18 10:35:00
6:55 AM,65.3,62.6,91,30.26,10.0,Calm,Calm,-,N/A,,Overcast,0,2013-08-18 10:55:00
7:15 AM,65.5,63.0,92,30.26,7.0,Calm,Calm,-,N/A,,Overcast,0,2013-08-18 11:15:00
7:35 AM,65.5,63.1,92,30.27,3.0,Calm,Calm,-,N/A,,Light Drizzle,0,2013-08-18 11:35:00
7:55 AM,65.5,63.0,92,30.26,10.0,Calm,Calm,-,N/A,,Overcast,0,2013-08-18 11:55:00
8:15 AM,65.8,63.0,90,30.27,10.0,Calm,Calm,-,N/A,,Overcast,0,2013-08-18 12:15:00
8:35 AM,66.0,63.0,90,30.28,10.0,Calm,Calm,-,N/A,,Overcast,0,2013-08-18 12:35:00
8:55 AM,66.6,63.5,90,30.28,10.0,Calm,Calm,-,N/A,Rain,Light Rain,0,2013-08-18 12:55:00
9:15 AM,66.7,63.5,89,30.29,10.0,Calm,Calm,-,N/A,,Light Drizzle,0,2013-08-18 13:15:00
9:35 AM,66.7,63.5,89,30.29,10.0,Calm,Calm,-,N/A,,Light Drizzle,0,2013-08-18 13:35:00
9:55 AM,66.7,63.7,90,30.29,10.0,Calm,Calm,-,N/A,,Light Drizzle,0,2013-08-18 13:55:00
10:15 AM,67.8,64.6,89,30.29,10.0,NE,3.5,-,N/A,Rain,Light Rain,40,2013-08-18 14:15:00
10:35 AM,69.8,65.8,87,30.28,10.0,North,6.9,-,N/A,,Mostly Cloudy,10,2013-08-18 14:35:00
10:55 AM,70.5,66.0,86,30.30,10.0,NNE,3.5,-,N/A,,Mostly Cloudy,20,2013-08-18 14:55:00
11:15 AM,70.9,65.7,83,30.31,10.0,East,4.6,-,N/A,,Mostly Cloudy,80,2013-08-18 15:15:00
11:35 AM,71.6,65.5,81,30.31,10.0,ENE,5.8,-,N/A,,Overcast,60,2013-08-18 15:35:00
11:55 AM,71.4,66.0,83,30.31,10.0,Calm,Calm,-,N/A,,Overcast,0,2013-08-18 15:55:00
12:15 PM,71.2,65.7,82,30.31,10.0,Calm,Calm,-,N/A,,Overcast,0,2013-08-18 16:15:00
12:35 PM,71.4,65.8,82,30.30,10.0,Calm,Calm,-,N/A,,Overcast,0,2013-08-18 16:35:00
12:55 PM,72.5,66.6,82,30.29,10.0,East,4.6,-,N/A,,Overcast,80,2013-08-18 16:55:00
1:15 PM,74.1,67.5,80,30.26,10.0,ENE,6.9,-,N/A,,Mostly Cloudy,70,2013-08-18 17:15:00
1:35 PM,74.5,66.9,77,30.27,10.0,East,3.5,-,N/A,,Mostly Cloudy,90,2013-08-18 17:35:00
1:55 PM,72.5,66.0,80,30.28,10.0,SSE,4.6,-,N/A,,Overcast,150,2013-08-18 17:55:00
2:15 PM,73.2,66.4,79,30.28,10.0,SSE,4.6,-,N/A,,Overcast,150,2013-08-18 18:15:00
2:35 PM,73.4,66.7,80,30.27,10.0,SE,3.5,-,N/A,,Overcast,130,2013-08-18 18:35:00
2:55 PM,72.9,66.4,80,30.27,10.0,SE,3.5,-,N/A,,Overcast,130,2013-08-18 18:55:00
3:15 PM,75.0,67.5,77,30.26,10.0,East,4.6,-,N/A,,Mostly Cloudy,100,2013-08-18 19:15:00
3:35 PM,74.8,66.9,76,30.24,10.0,SE,3.5,-,N/A,,Mostly Cloudy,130,2013-08-18 19:35:00
3:55 PM,74.7,67.3,78,30.24,10.0,East,4.6,-,N/A,,Overcast,80,2013-08-18 19:55:00
4:15 PM,74.8,67.6,78,30.24,10.0,ENE,3.5,-,N/A,,Overcast,70,2013-08-18 20:15:00
4:35 PM,75.0,67.1,76,30.24,10.0,Calm,Calm,-,N/A,,Overcast,0,2013-08-18 20:35:00
4:55 PM,74.5,67.3,78,30.24,10.0,East,3.5,-,N/A,,Overcast,100,2013-08-18 20:55:00
5:15 PM,74.8,67.6,78,30.24,10.0,East,4.6,-,N/A,,Overcast,100,2013-08-18 21:15:00
5:35 PM,75.2,67.6,77,30.24,10.0,East,4.6,-,N/A,,Scattered Clouds,90,2013-08-18 21:35:00
5:55 PM,74.8,67.5,78,30.23,10.0,East,4.6,-,N/A,,Mostly Cloudy,100,2013-08-18 21:55:00
6:15 PM,73.8,67.5,81,30.23,10.0,ESE,5.8,-,N/A,,Mostly Cloudy,120,2013-08-18 22:15:00
6:35 PM,73.6,67.5,81,30.24,10.0,East,6.9,-,N/A,,Mostly Cloudy,90,2013-08-18 22:35:00
6:55 PM,73.0,67.5,83,30.24,10.0,ESE,3.5,-,N/A,,Overcast,110,2013-08-18 22:55:00
7:15 PM,72.5,67.1,83,30.24,10.0,East,4.6,-,N/A,,Overcast,100,2013-08-18 23:15:00
7:35 PM,72.5,67.3,84,30.24,10.0,East,3.5,-,N/A,,Overcast,100,2013-08-18 23:35:00
7:55 PM,71.6,66.6,84,30.25,10.0,East,4.6,-,N/A,,Overcast,90,2013-08-18 23:55:00
8:15 PM,71.1,66.4,85,30.26,10.0,East,3.5,-,N/A,,Overcast,100,2013-08-19 00:15:00
8:35 PM,70.9,66.4,86,30.27,10.0,East,3.5,-,N/A,,Overcast,80,2013-08-19 00:35:00
8:55 PM,70.7,66.4,86,30.27,10.0,East,4.6,-,N/A,,Overcast,80,2013-08-19 00:55:00
9:15 PM,70.7,66.4,86,30.27,10.0,ENE,4.6,-,N/A,,Overcast,60,2013-08-19 01:15:00
9:35 PM,70.2,66.2,87,30.27,10.0,East,5.8,-,N/A,,Overcast,80,2013-08-19 01:35:00
9:55 PM,69.8,65.5,86,30.27,10.0,ENE,6.9,-,N/A,,Overcast,70,2013-08-19 01:55:00
10:15 PM,69.8,65.5,86,30.28,10.0,ENE,5.8,-,N/A,,Overcast,70,2013-08-19 02:15:00
10:35 PM,69.6,65.8,88,30.28,10.0,ENE,6.9,-,N/A,Rain,Rain,70,2013-08-19 02:35:00
10:55 PM,68.9,65.7,89,30.28,10.0,ENE,3.5,-,0.01,Rain,Rain,60,2013-08-19 02:55:00
11:15 PM,68.2,65.3,90,30.28,10.0,ENE,3.5,-,0.04,Rain,Light Rain,60,2013-08-19 03:15:00
11:35 PM,68.2,65.3,90,30.28,10.0,NE,3.5,-,0.04,,Drizzle,50,2013-08-19 03:35:00
11:55 PM,68.0,65.3,91,30.28,10.0,Calm,Calm,-,0.04,,Overcast,0,2013-08-19 03:55:00